MET'MAP v2.0
soon released !

Expected late october,
this new version will be
more efficient, smarter,
and hosted on a brand new
server x3 powerfull...
...and still free !


Not compatible ?
Try the mobile version !

LOG IN : | Subscribe | Disclaimer | Who is Orbifly ? |
ICAO code :

TAF - LEVC Valencia Manises - 22 Nov 2019 08:40 UTC
Data Sources :     NOAA   


- Airport Elevation : 240 ft
- IATA code : VLC
- No reported NOTAMs.


LEVC - Valencia Manises

NO METAR
TAF TAF LEVC
Valid from the 22 at 06:00 until the 23 at 06:00 UTC


220500Z 2206/2306 VRB04KT 9999 FEW020 TX17/2213Z TN07/2207Z
BECMG 2214/2216 20008KT
TEMPO 2214/2222 4000 SHRA SCT035TCU
BECMG 2221/2223 27010KT

Source NOAA


MET'MAP, your aeronautical weather chart ! - Copyright ORBIFLY December 2007

Programming & Development : Alexandra Zaïnal
Co-Developer : Marc-Olivier Méhu
Technical & hardware support : Manuel Goepfert
Concept & Financing : Baudouin d'Aumeries